createdAt,value
2018-07-31T00:01:23.411Z,25.03
2018-07-31T00:03:51.522Z,24.91
2018-07-31T00:06:24.607Z,24.79
2018-07-31T00:08:54.157Z,24.71
2018-07-31T00:11:22.185Z,24.65
2018-07-31T00:13:50.213Z,24.62
2018-07-31T00:16:18.269Z,24.60
2018-07-31T00:18:46.337Z,24.54
2018-07-31T00:21:14.394Z,24.51
2018-07-31T00:23:42.443Z,24.45
2018-07-31T00:26:10.481Z,24.44
2018-07-31T00:28:38.523Z,24.43
2018-07-31T00:31:06.560Z,24.38
2018-07-31T00:33:34.960Z,24.32
2018-07-31T00:36:03.452Z,24.18
2018-07-31T00:38:31.478Z,24.16
2018-07-31T00:40:59.572Z,24.08
2018-07-31T00:43:27.609Z,24.05
2018-07-31T00:45:55.636Z,23.91
2018-07-31T00:48:23.666Z,23.80
2018-07-31T00:50:51.705Z,23.76
2018-07-31T00:53:19.725Z,23.70
2018-07-31T00:55:47.758Z,23.64
2018-07-31T00:58:15.843Z,23.63
2018-07-31T01:00:43.860Z,23.61
2018-07-31T01:03:11.884Z,23.61
2018-07-31T01:05:39.916Z,23.61
2018-07-31T01:08:07.945Z,23.64
2018-07-31T01:10:35.996Z,23.65
2018-07-31T01:13:04.836Z,23.61
2018-07-31T01:15:32.874Z,23.55
2018-07-31T01:18:01.339Z,23.47
2018-07-31T01:20:29.359Z,23.44
2018-07-31T01:22:57.380Z,23.54
2018-07-31T01:25:25.499Z,23.59
2018-07-31T01:27:53.511Z,23.56
2018-07-31T01:30:21.560Z,23.45
2018-07-31T01:32:49.592Z,23.39
2018-07-31T01:35:17.629Z,23.37
2018-07-31T01:37:45.664Z,23.42
2018-07-31T01:40:13.708Z,23.44
2018-07-31T01:42:41.741Z,23.45
2018-07-31T01:45:09.794Z,23.48
2018-07-31T01:47:37.833Z,23.50
2018-07-31T01:50:05.891Z,23.54
2018-07-31T01:52:33.928Z,23.59
2018-07-31T01:55:01.959Z,23.60
2018-07-31T01:57:30.000Z,23.56
2018-07-31T01:59:58.040Z,23.59
2018-07-31T02:02:26.105Z,23.56
2018-07-31T02:04:54.133Z,23.56
2018-07-31T02:07:22.164Z,23.58
2018-07-31T02:09:50.373Z,23.63
2018-07-31T02:12:18.452Z,23.59
2018-07-31T02:14:46.457Z,23.57
2018-07-31T02:17:14.488Z,23.58
2018-07-31T02:19:42.502Z,23.57
2018-07-31T02:22:10.525Z,23.55
2018-07-31T02:24:38.556Z,23.54
2018-07-31T02:27:06.591Z,23.50
2018-07-31T02:29:40.050Z,23.50
2018-07-31T02:32:08.071Z,23.45
2018-07-31T02:34:36.104Z,23.43
2018-07-31T02:37:05.452Z,23.47
2018-07-31T02:39:33.473Z,23.52
2018-07-31T02:42:02.308Z,23.52
2018-07-31T02:44:30.517Z,23.47
2018-07-31T02:46:58.592Z,23.47
2018-07-31T02:49:26.591Z,23.45
2018-07-31T02:51:54.619Z,23.47
2018-07-31T02:54:23.117Z,23.50
2018-07-31T02:56:51.211Z,23.52
2018-07-31T02:59:19.233Z,23.52
2018-07-31T03:01:47.259Z,23.54
2018-07-31T03:04:15.306Z,23.53
2018-07-31T03:06:43.353Z,23.51
2018-07-31T03:09:11.376Z,23.52
2018-07-31T03:11:39.408Z,23.51
2018-07-31T03:14:07.463Z,23.51
2018-07-31T03:16:35.487Z,23.51
2018-07-31T03:19:05.586Z,23.50
2018-07-31T03:21:33.600Z,23.48
2018-07-31T03:24:01.628Z,23.49
2018-07-31T03:26:29.820Z,23.37
2018-07-31T03:28:57.849Z,23.32
2018-07-31T03:31:25.870Z,23.26
2018-07-31T03:33:53.906Z,23.19
2018-07-31T03:36:21.942Z,23.17
2018-07-31T03:38:49.978Z,23.15
2018-07-31T03:41:17.997Z,23.13
2018-07-31T03:43:46.021Z,23.13
2018-07-31T03:46:14.145Z,23.10
2018-07-31T03:48:42.188Z,23.09
2018-07-31T03:51:10.381Z,23.06
2018-07-31T03:53:38.420Z,23.04
2018-07-31T03:56:06.451Z,23.01
2018-07-31T03:58:34.495Z,22.98
2018-07-31T04:01:02.539Z,22.97
2018-07-31T04:03:30.576Z,22.95
2018-07-31T04:05:58.627Z,22.96
2018-07-31T04:08:26.648Z,22.94
2018-07-31T04:10:54.668Z,22.94
2018-07-31T04:13:22.706Z,22.93
2018-07-31T04:15:50.739Z,22.94
2018-07-31T04:18:18.761Z,22.93
2018-07-31T04:20:46.785Z,22.90
2018-07-31T04:23:14.832Z,22.95
2018-07-31T04:25:42.845Z,23.01
2018-07-31T04:28:10.900Z,23.04
2018-07-31T04:30:38.934Z,23.08
2018-07-31T04:33:06.959Z,23.11
2018-07-31T04:35:35.146Z,23.15
2018-07-31T04:38:03.191Z,23.18
2018-07-31T04:40:31.220Z,23.18
2018-07-31T04:42:59.260Z,23.15
2018-07-31T04:45:27.296Z,23.12
2018-07-31T04:47:55.341Z,23.15
2018-07-31T04:50:23.426Z,23.19
2018-07-31T04:52:51.806Z,23.22
2018-07-31T04:55:19.842Z,23.24
2018-07-31T04:57:48.488Z,23.25
2018-07-31T05:00:16.517Z,23.25
2018-07-31T05:02:44.552Z,23.29
2018-07-31T05:05:12.595Z,23.29
2018-07-31T05:07:40.640Z,23.30
2018-07-31T05:10:12.301Z,23.28
2018-07-31T05:12:41.260Z,23.29
2018-07-31T05:20:04.989Z,23.29
2018-07-31T05:22:33.029Z,23.32
2018-07-31T05:25:01.053Z,23.35
2018-07-31T05:27:29.083Z,23.39
2018-07-31T05:29:57.110Z,23.43
2018-07-31T05:32:25.171Z,23.48
2018-07-31T05:34:53.200Z,23.54
2018-07-31T05:37:21.261Z,23.55
2018-07-31T05:39:49.753Z,23.57
2018-07-31T05:42:17.837Z,23.61
2018-07-31T05:44:45.870Z,23.66
2018-07-31T05:47:13.952Z,23.75
2018-07-31T05:49:41.993Z,23.85
2018-07-31T05:52:10.042Z,23.92
2018-07-31T05:54:38.108Z,23.96
2018-07-31T05:57:06.159Z,24.02
2018-07-31T05:59:34.205Z,24.06
2018-07-31T06:02:02.259Z,24.09
2018-07-31T06:04:31.577Z,24.15
2018-07-31T06:07:00.065Z,24.21
2018-07-31T06:09:28.165Z,24.31
2018-07-31T06:11:56.202Z,24.39
2018-07-31T06:14:24.299Z,24.51
2018-07-31T06:16:52.352Z,24.56
2018-07-31T06:19:20.376Z,24.65
2018-07-31T06:21:48.418Z,24.78
2018-07-31T06:24:16.476Z,24.86
2018-07-31T06:26:44.500Z,24.97
2018-07-31T06:29:12.532Z,25.09
2018-07-31T06:31:40.572Z,25.27
2018-07-31T06:34:08.628Z,25.43
2018-07-31T06:36:36.648Z,25.63
2018-07-31T06:39:08.269Z,25.82
2018-07-31T06:41:36.315Z,25.98
2018-07-31T06:44:05.088Z,26.09
2018-07-31T06:46:33.430Z,26.22
2018-07-31T06:49:01.449Z,26.31
2018-07-31T06:51:29.484Z,26.38
2018-07-31T06:53:57.526Z,26.48
2018-07-31T06:56:25.589Z,26.61
2018-07-31T06:58:53.641Z,26.64
2018-07-31T07:01:22.477Z,26.67
2018-07-31T07:03:50.526Z,26.76
2018-07-31T07:06:18.557Z,26.91
2018-07-31T07:08:46.582Z,27.00
2018-07-31T07:11:14.885Z,27.07
2018-07-31T07:13:42.926Z,27.14
2018-07-31T07:16:11.465Z,27.19
2018-07-31T07:18:39.488Z,27.27
2018-07-31T07:21:08.024Z,27.30
2018-07-31T07:23:36.412Z,27.31
2018-07-31T07:26:04.966Z,27.29
2018-07-31T07:28:33.020Z,27.29
2018-07-31T07:31:01.041Z,27.27
2018-07-31T07:33:29.129Z,27.22
2018-07-31T07:35:57.428Z,27.25
2018-07-31T07:38:25.768Z,27.28
2018-07-31T07:40:53.792Z,27.38
2018-07-31T07:43:21.830Z,27.51
2018-07-31T07:45:49.861Z,27.64
2018-07-31T07:48:17.933Z,27.84
2018-07-31T07:50:45.970Z,28.09
2018-07-31T07:53:14.034Z,28.33
2018-07-31T07:55:42.175Z,28.59
2018-07-31T07:58:10.636Z,28.72
2018-07-31T08:00:38.669Z,28.70
2018-07-31T08:03:06.733Z,28.74
2018-07-31T08:05:34.751Z,28.75
2018-07-31T08:08:03.624Z,28.84
2018-07-31T08:10:31.665Z,28.86
2018-07-31T08:12:59.709Z,28.81
2018-07-31T08:15:27.763Z,28.77
2018-07-31T08:17:55.825Z,28.81
2018-07-31T08:20:23.959Z,28.78
2018-07-31T08:22:51.949Z,28.85
2018-07-31T08:25:20.001Z,28.93
2018-07-31T08:27:48.068Z,29.04
2018-07-31T08:30:16.212Z,29.28
2018-07-31T08:32:44.268Z,29.53
2018-07-31T08:35:12.305Z,29.69
2018-07-31T08:37:40.340Z,29.77
2018-07-31T08:40:08.381Z,29.89
2018-07-31T08:42:36.567Z,29.96
2018-07-31T08:45:05.506Z,30.00
2018-07-31T08:47:33.573Z,29.93
2018-07-31T08:50:01.614Z,30.02
2018-07-31T08:52:29.641Z,30.07
2018-07-31T08:54:57.686Z,30.19
2018-07-31T08:57:25.893Z,30.19
2018-07-31T08:59:53.950Z,30.29
2018-07-31T09:02:21.988Z,30.37
2018-07-31T09:04:50.107Z,30.59
2018-07-31T09:07:18.149Z,30.78
2018-07-31T09:09:46.341Z,30.80
2018-07-31T09:12:14.429Z,30.95
2018-07-31T09:14:42.447Z,31.01
2018-07-31T09:17:11.115Z,31.15
2018-07-31T09:19:39.161Z,31.15
2018-07-31T09:22:07.242Z,31.26
2018-07-31T09:24:35.435Z,31.44
2018-07-31T09:27:03.397Z,31.52
2018-07-31T09:29:31.417Z,31.53
2018-07-31T09:31:59.468Z,31.68
2018-07-31T09:34:27.652Z,31.91
2018-07-31T09:36:55.712Z,32.04
2018-07-31T09:39:24.045Z,32.10
2018-07-31T09:41:52.196Z,32.23
2018-07-31T09:44:20.230Z,32.25
2018-07-31T09:46:48.259Z,32.13
2018-07-31T09:49:16.292Z,31.96
2018-07-31T09:51:44.498Z,31.92
2018-07-31T09:54:12.521Z,32.03
2018-07-31T09:56:40.845Z,32.05
2018-07-31T09:59:09.016Z,32.10
2018-07-31T10:01:37.048Z,32.15
2018-07-31T10:04:05.067Z,32.36
2018-07-31T10:06:33.093Z,32.60
2018-07-31T10:09:01.337Z,32.93
2018-07-31T10:11:29.557Z,33.31
2018-07-31T10:13:57.595Z,33.26
2018-07-31T10:16:25.729Z,33.27
2018-07-31T10:18:53.892Z,33.34
2018-07-31T10:21:21.964Z,33.32
2018-07-31T10:23:49.980Z,33.35
2018-07-31T10:26:18.003Z,33.17
2018-07-31T10:28:46.377Z,33.31
2018-07-31T10:31:14.406Z,33.64
2018-07-31T10:33:42.449Z,34.01
2018-07-31T10:36:10.485Z,34.35
2018-07-31T10:38:38.516Z,34.53
2018-07-31T10:41:06.797Z,34.73
2018-07-31T10:43:35.163Z,34.91
2018-07-31T10:46:03.144Z,34.92
2018-07-31T10:48:31.292Z,35.07
2018-07-31T10:50:59.406Z,35.00
2018-07-31T10:53:27.384Z,34.92
2018-07-31T10:55:55.424Z,35.03
2018-07-31T10:58:23.861Z,34.87
2018-07-31T11:00:51.822Z,34.67
2018-07-31T11:03:19.860Z,34.35
2018-07-31T11:05:47.886Z,34.20
2018-07-31T11:08:15.904Z,34.22
2018-07-31T11:10:43.922Z,34.29
2018-07-31T11:13:12.209Z,34.02
2018-07-31T11:15:40.528Z,33.85
2018-07-31T11:18:08.576Z,33.94
2018-07-31T11:20:37.519Z,33.89
2018-07-31T11:23:05.580Z,33.78
2018-07-31T11:25:33.861Z,33.61
2018-07-31T11:28:01.906Z,33.37
2018-07-31T11:30:30.297Z,32.97
2018-07-31T11:32:58.384Z,32.50
2018-07-31T11:35:26.420Z,32.18
2018-07-31T11:37:54.472Z,32.11
2018-07-31T11:40:22.513Z,32.14
2018-07-31T11:42:50.553Z,32.43
2018-07-31T11:45:18.615Z,32.66
2018-07-31T11:47:46.878Z,32.53
2018-07-31T11:50:14.939Z,32.33
2018-07-31T11:52:42.966Z,32.13
2018-07-31T11:55:10.991Z,32.09
2018-07-31T11:57:39.033Z,31.95
2018-07-31T12:00:09.893Z,31.97
2018-07-31T12:02:38.190Z,32.13
2018-07-31T12:05:06.590Z,32.45
2018-07-31T12:07:34.625Z,32.88
2018-07-31T12:10:02.781Z,33.04
2018-07-31T12:12:30.811Z,33.15
2018-07-31T12:14:58.873Z,33.00
2018-07-31T12:17:27.073Z,32.88
2018-07-31T12:19:55.150Z,32.84
2018-07-31T12:22:23.198Z,32.85
2018-07-31T12:24:51.250Z,32.93
2018-07-31T12:27:19.303Z,32.90
2018-07-31T12:29:47.414Z,32.95
2018-07-31T12:32:15.477Z,33.02
2018-07-31T12:34:43.556Z,33.22
2018-07-31T12:37:11.640Z,33.41
2018-07-31T12:39:39.673Z,33.53
2018-07-31T12:42:07.784Z,33.54
2018-07-31T12:44:35.809Z,33.52
2018-07-31T12:47:04.540Z,33.59
2018-07-31T12:49:32.604Z,33.52
2018-07-31T12:52:00.657Z,33.31
2018-07-31T12:54:28.679Z,33.24
2018-07-31T12:56:56.804Z,33.15
2018-07-31T12:59:24.831Z,33.14
2018-07-31T13:01:52.878Z,33.33
2018-07-31T13:04:20.903Z,33.60
2018-07-31T13:06:48.938Z,33.68
2018-07-31T13:09:16.986Z,33.67
2018-07-31T13:11:45.007Z,33.84
2018-07-31T13:14:13.317Z,34.21
2018-07-31T13:16:41.371Z,34.36
2018-07-31T13:19:09.396Z,34.43
2018-07-31T13:21:37.776Z,34.27
2018-07-31T13:24:05.793Z,34.02
2018-07-31T13:26:33.817Z,33.76
2018-07-31T13:29:01.849Z,33.84
2018-07-31T13:31:29.865Z,33.76
2018-07-31T13:33:57.905Z,33.59
2018-07-31T13:36:25.928Z,33.61
2018-07-31T13:38:53.948Z,33.75
2018-07-31T13:41:21.976Z,33.67
2018-07-31T13:43:50.281Z,33.61
2018-07-31T13:46:18.233Z,33.37
2018-07-31T13:48:46.294Z,33.49
2018-07-31T13:51:14.937Z,33.64
2018-07-31T13:53:42.971Z,33.59
2018-07-31T13:56:11.009Z,33.41
2018-07-31T13:58:39.045Z,33.27
2018-07-31T14:01:07.241Z,33.08
2018-07-31T14:03:35.291Z,32.69
2018-07-31T14:06:03.421Z,32.39
2018-07-31T14:08:31.454Z,32.12
2018-07-31T14:10:59.488Z,31.97
2018-07-31T14:13:27.526Z,31.71
2018-07-31T14:15:55.560Z,31.64
2018-07-31T14:18:23.700Z,31.65
2018-07-31T14:20:51.686Z,31.58
2018-07-31T14:23:19.790Z,31.29
2018-07-31T14:25:47.835Z,31.12
2018-07-31T14:28:15.884Z,31.12
2018-07-31T14:30:44.010Z,31.07
2018-07-31T14:33:12.033Z,31.12
2018-07-31T14:35:40.091Z,31.11
2018-07-31T14:38:08.334Z,31.27
2018-07-31T14:40:36.488Z,31.28
2018-07-31T14:43:04.988Z,31.41
2018-07-31T14:45:33.037Z,31.30
2018-07-31T14:48:01.314Z,31.35
2018-07-31T14:50:33.224Z,31.54
2018-07-31T14:53:01.337Z,31.62
2018-07-31T14:55:29.377Z,31.71
2018-07-31T14:57:57.408Z,31.88
2018-07-31T15:00:25.769Z,31.89
2018-07-31T15:02:53.809Z,31.73
2018-07-31T15:05:21.894Z,31.42
2018-07-31T15:07:49.998Z,31.45
2018-07-31T15:10:18.184Z,31.61
2018-07-31T15:12:46.543Z,31.69
2018-07-31T15:15:14.647Z,31.63
2018-07-31T15:17:42.687Z,31.44
2018-07-31T15:20:10.724Z,31.34
2018-07-31T15:22:38.848Z,31.24
2018-07-31T15:25:07.089Z,31.09
2018-07-31T15:27:35.130Z,31.14
2018-07-31T15:30:03.206Z,31.23
2018-07-31T15:32:31.385Z,31.20
2018-07-31T15:34:59.442Z,31.21
2018-07-31T15:37:27.503Z,31.19
2018-07-31T15:39:55.549Z,31.12
2018-07-31T15:42:23.573Z,31.24
2018-07-31T15:44:51.661Z,31.34
2018-07-31T15:47:19.713Z,31.28
2018-07-31T15:49:47.817Z,31.10
2018-07-31T15:52:16.516Z,31.13
2018-07-31T15:54:44.570Z,31.11
2018-07-31T15:57:12.610Z,30.99
2018-07-31T15:59:40.691Z,30.88
2018-07-31T16:02:08.921Z,30.91
2018-07-31T16:04:36.948Z,30.93
2018-07-31T16:07:05.093Z,30.91
2018-07-31T16:09:33.125Z,31.07
2018-07-31T16:12:01.156Z,31.13
2018-07-31T16:14:29.364Z,31.08
2018-07-31T16:16:57.398Z,30.97
2018-07-31T16:19:25.436Z,30.98
2018-07-31T16:21:53.518Z,31.00
2018-07-31T16:24:21.560Z,30.94
2018-07-31T16:26:49.625Z,30.77
2018-07-31T16:29:17.684Z,30.55
2018-07-31T16:31:45.727Z,30.47
2018-07-31T16:34:13.754Z,30.33
2018-07-31T16:36:41.825Z,30.36
2018-07-31T16:39:10.880Z,30.40
2018-07-31T16:41:38.962Z,30.35
2018-07-31T16:44:07.016Z,30.29
2018-07-31T16:46:35.069Z,30.21
2018-07-31T16:49:03.170Z,30.17
2018-07-31T16:51:31.261Z,30.21
2018-07-31T16:53:59.393Z,30.05
2018-07-31T16:56:27.438Z,29.89
2018-07-31T16:58:55.482Z,29.81
2018-07-31T17:01:23.500Z,29.70
2018-07-31T17:03:51.541Z,29.62
2018-07-31T17:06:19.616Z,29.48
2018-07-31T17:08:47.665Z,29.45
2018-07-31T17:11:15.713Z,29.49
2018-07-31T17:13:43.766Z,29.49
2018-07-31T17:16:11.806Z,29.43
2018-07-31T17:18:39.826Z,29.36
2018-07-31T17:21:07.865Z,29.32
2018-07-31T17:23:35.916Z,29.33
2018-07-31T17:26:03.981Z,29.30
2018-07-31T17:28:32.042Z,29.26
2018-07-31T17:31:00.045Z,29.24
2018-07-31T17:33:28.087Z,29.19
2018-07-31T17:35:56.133Z,28.97
2018-07-31T17:38:24.167Z,28.90
2018-07-31T17:40:52.253Z,28.78
2018-07-31T17:43:20.302Z,28.70
2018-07-31T17:45:48.345Z,28.64
2018-07-31T17:48:16.604Z,28.64
2018-07-31T17:50:44.822Z,28.65
2018-07-31T17:53:13.132Z,28.61
2018-07-31T17:55:41.166Z,28.53
2018-07-31T17:58:09.217Z,28.50
2018-07-31T18:00:37.246Z,28.42
2018-07-31T18:03:05.280Z,28.39
2018-07-31T18:05:33.332Z,28.39
2018-07-31T18:08:01.656Z,28.36
2018-07-31T18:10:29.861Z,28.34
2018-07-31T18:12:57.892Z,28.25
2018-07-31T18:15:25.940Z,28.26
2018-07-31T18:17:54.061Z,28.24
2018-07-31T18:20:22.127Z,28.23
2018-07-31T18:22:50.173Z,28.23
2018-07-31T18:25:18.257Z,28.17
2018-07-31T18:27:46.289Z,28.12
2018-07-31T18:30:14.335Z,28.06
2018-07-31T18:32:42.586Z,27.99
2018-07-31T18:35:10.606Z,27.81
2018-07-31T18:37:38.640Z,27.70
2018-07-31T18:40:07.063Z,27.62
2018-07-31T18:42:35.246Z,27.54
2018-07-31T18:45:03.452Z,27.43
2018-07-31T18:47:32.045Z,27.25
2018-07-31T18:50:00.090Z,27.16
2018-07-31T18:52:28.308Z,27.03
2018-07-31T18:54:56.342Z,26.89
2018-07-31T18:57:24.416Z,26.77
2018-07-31T18:59:52.838Z,26.69
2018-07-31T19:02:20.873Z,26.55
2018-07-31T19:04:48.916Z,26.45
2018-07-31T19:07:17.026Z,26.40
2018-07-31T19:09:45.091Z,26.38
2018-07-31T19:12:13.110Z,26.37
2018-07-31T19:14:41.169Z,26.17
2018-07-31T19:17:09.216Z,26.13
2018-07-31T19:19:37.273Z,26.06
2018-07-31T19:22:05.317Z,25.98
2018-07-31T19:24:33.350Z,25.93
2018-07-31T19:27:01.684Z,25.93
2018-07-31T19:29:30.371Z,25.82
2018-07-31T19:31:58.445Z,25.67
2018-07-31T19:34:27.005Z,25.64
2018-07-31T19:36:55.155Z,25.45
2018-07-31T19:39:23.357Z,25.36
2018-07-31T19:41:51.626Z,25.33
2018-07-31T19:44:19.574Z,25.26
2018-07-31T19:46:47.589Z,25.17
2018-07-31T19:49:15.653Z,25.13
2018-07-31T19:51:43.652Z,25.04
2018-07-31T19:54:11.777Z,25.01
2018-07-31T19:56:39.819Z,24.95
2018-07-31T19:59:07.888Z,24.93
2018-07-31T20:01:35.945Z,24.87
2018-07-31T20:04:05.106Z,24.76
2018-07-31T20:06:33.920Z,24.71
2018-07-31T20:09:01.998Z,24.59
2018-07-31T20:11:30.070Z,24.47
2018-07-31T20:13:58.213Z,24.34
2018-07-31T20:16:26.282Z,24.27
2018-07-31T20:18:54.506Z,24.20
2018-07-31T20:21:22.901Z,24.14
2018-07-31T20:23:50.907Z,24.04
2018-07-31T20:26:19.049Z,24.03
2018-07-31T20:28:47.175Z,23.92
2018-07-31T20:31:15.225Z,23.87
2018-07-31T20:33:43.274Z,23.82
2018-07-31T20:36:11.360Z,23.86
2018-07-31T20:38:39.592Z,23.82
2018-07-31T20:41:07.648Z,23.83
2018-07-31T20:43:35.679Z,23.84
2018-07-31T20:46:03.745Z,23.85
2018-07-31T20:48:31.816Z,23.87
2018-07-31T20:50:59.853Z,23.83
2018-07-31T20:53:27.925Z,23.81
2018-07-31T20:55:55.959Z,23.86
2018-07-31T20:58:24.004Z,23.85
2018-07-31T21:00:52.063Z,23.86
2018-07-31T21:03:20.114Z,23.84
2018-07-31T21:05:48.166Z,23.81
2018-07-31T21:08:16.205Z,23.78
2018-07-31T21:10:44.258Z,23.69
2018-07-31T21:13:12.296Z,23.64
2018-07-31T21:15:40.323Z,23.57
2018-07-31T21:18:08.435Z,23.47
2018-07-31T21:20:36.513Z,23.44
2018-07-31T21:23:04.701Z,23.36
2018-07-31T21:25:32.748Z,23.28
2018-07-31T21:28:00.798Z,23.23
2018-07-31T21:30:28.808Z,23.22
2018-07-31T21:32:56.867Z,23.23
2018-07-31T21:35:25.114Z,23.23
2018-07-31T21:37:53.143Z,23.20
2018-07-31T21:40:21.186Z,23.18
2018-07-31T21:42:49.246Z,23.22
2018-07-31T21:45:17.280Z,23.24
2018-07-31T21:47:45.406Z,23.23
2018-07-31T21:50:13.346Z,23.20
2018-07-31T21:52:41.390Z,23.15
2018-07-31T21:55:09.568Z,23.16
2018-07-31T21:57:37.609Z,23.15
2018-07-31T22:00:08.099Z,23.07
2018-07-31T22:02:36.141Z,23.07
2018-07-31T22:05:04.920Z,23.05
2018-07-31T22:07:32.953Z,23.03
2018-07-31T22:10:01.064Z,23.00
2018-07-31T22:12:29.090Z,22.98
2018-07-31T22:14:57.186Z,22.93
2018-07-31T22:17:25.203Z,22.92
2018-07-31T22:19:53.269Z,22.83
2018-07-31T22:22:21.285Z,22.74
2018-07-31T22:24:49.355Z,22.71
2018-07-31T22:27:17.389Z,22.68
2018-07-31T22:29:45.427Z,22.64
2018-07-31T22:32:13.467Z,22.59
2018-07-31T22:34:41.488Z,22.51
2018-07-31T22:37:09.513Z,22.45
2018-07-31T22:39:37.548Z,22.40
2018-07-31T22:42:05.581Z,22.35
2018-07-31T22:44:33.613Z,22.35
2018-07-31T22:47:01.646Z,22.34
2018-07-31T22:49:29.711Z,22.37
2018-07-31T22:51:57.739Z,22.38
2018-07-31T22:54:25.773Z,22.35
2018-07-31T22:56:53.808Z,22.36
2018-07-31T22:59:21.839Z,22.33
2018-07-31T23:01:49.888Z,22.23
2018-07-31T23:04:17.897Z,22.18
2018-07-31T23:06:45.925Z,22.14
2018-07-31T23:09:13.965Z,22.10
2018-07-31T23:11:42.013Z,22.03
2018-07-31T23:14:10.086Z,21.97
2018-07-31T23:16:38.106Z,21.94
2018-07-31T23:19:06.385Z,21.93
2018-07-31T23:21:34.584Z,21.88
2018-07-31T23:24:02.616Z,21.78
2018-07-31T23:26:30.647Z,21.72
2018-07-31T23:28:58.677Z,21.61
2018-07-31T23:31:26.722Z,21.53
2018-07-31T23:33:54.818Z,21.53
2018-07-31T23:36:22.832Z,21.55
2018-07-31T23:38:50.877Z,21.54
2018-07-31T23:41:18.893Z,21.55
2018-07-31T23:43:46.921Z,21.59
2018-07-31T23:46:14.960Z,21.63
2018-07-31T23:48:45.505Z,21.64
2018-07-31T23:51:13.532Z,21.65
2018-07-31T23:53:41.617Z,21.66
2018-07-31T23:56:09.648Z,21.62
2018-07-31T23:58:37.698Z,21.63
